createdAt,value
2018-09-15T00:00:55.992Z,101942.27
2018-09-15T00:03:25.412Z,101940.83
2018-09-15T00:05:54.777Z,101937.66
2018-09-15T00:08:23.587Z,101934.19
2018-09-15T00:10:52.449Z,101933.76
2018-09-15T00:13:22.313Z,101931.20
2018-09-15T00:15:51.383Z,101930.96
2018-09-15T00:18:20.159Z,101933.27
2018-09-15T00:20:49.254Z,101938.84
2018-09-15T00:23:18.150Z,101932.86
2018-09-15T00:25:47.193Z,101938.10
2018-09-15T00:28:17.032Z,101934.70
2018-09-15T00:30:46.108Z,101940.77
2018-09-15T00:33:15.109Z,101941.13
2018-09-15T00:35:44.684Z,101938.27
2018-09-15T00:38:14.198Z,101938.35
2018-09-15T00:40:42.994Z,101927.70
2018-09-15T00:43:11.879Z,101929.55
2018-09-15T00:45:40.838Z,101929.37
2018-09-15T00:48:09.674Z,101931.07
2018-09-15T00:50:39.197Z,101935.99
2018-09-15T00:53:08.123Z,101943.27
2018-09-15T00:55:37.598Z,101949.58
2018-09-15T00:58:07.228Z,101936.92
2018-09-15T01:00:35.917Z,101940.92
2018-09-15T01:03:05.198Z,101940.05
2018-09-15T01:05:34.401Z,101941.27
2018-09-15T01:08:03.336Z,101942.69
2018-09-15T01:10:32.062Z,101933.86
2018-09-15T01:13:00.972Z,101938.59
2018-09-15T01:15:29.737Z,101931.20
2018-09-15T01:17:58.583Z,101935.50
2018-09-15T01:20:27.223Z,101931.91
2018-09-15T01:22:56.112Z,101931.70
2018-09-15T01:25:24.909Z,101935.30
2018-09-15T01:27:53.897Z,101932.59
2018-09-15T01:30:23.342Z,101936.38
2018-09-15T01:32:52.175Z,101935.98
2018-09-15T01:35:21.078Z,101933.09
2018-09-15T01:37:50.452Z,101939.48
2018-09-15T01:40:19.357Z,101932.27
2018-09-15T01:42:48.648Z,101933.11
2018-09-15T01:45:17.292Z,101928.86
2018-09-15T01:47:46.041Z,101926.02
2018-09-15T01:50:15.368Z,101924.02
2018-09-15T01:52:44.103Z,101926.98
2018-09-15T01:55:13.087Z,101926.02
2018-09-15T01:57:41.893Z,101924.84
2018-09-15T02:00:10.674Z,101922.09
2018-09-15T02:02:39.614Z,101922.41
2018-09-15T02:05:08.433Z,101925.82
2018-09-15T02:07:37.378Z,101920.02
2018-09-15T02:10:06.743Z,101918.72
2018-09-15T02:12:35.911Z,101923.62
2018-09-15T02:15:04.991Z,101934.22
2018-09-15T02:17:34.799Z,101932.61
2018-09-15T02:20:04.870Z,101932.30
2018-09-15T02:22:34.618Z,101934.64
2018-09-15T02:25:03.402Z,101937.53
2018-09-15T02:27:32.266Z,101939.52
2018-09-15T02:30:01.064Z,101937.60
2018-09-15T02:32:30.029Z,101935.50
2018-09-15T02:34:59.104Z,101936.88
2018-09-15T02:37:27.969Z,101934.60
2018-09-15T02:39:57.207Z,101940.58
2018-09-15T02:42:26.304Z,101938.55
2018-09-15T02:44:56.008Z,101939.46
2018-09-15T02:47:24.945Z,101939.31
2018-09-15T02:49:54.064Z,101942.42
2018-09-15T02:52:23.343Z,101946.13
2018-09-15T02:54:52.327Z,101940.56
2018-09-15T02:57:21.697Z,101935.84
2018-09-15T02:59:51.214Z,101941.92
2018-09-15T03:02:19.977Z,101940.56
2018-09-15T03:04:48.869Z,101943.86
2018-09-15T03:07:18.355Z,101945.45
2018-09-15T03:09:47.183Z,101951.11
2018-09-15T03:12:15.931Z,101950.94
2018-09-15T03:14:45.023Z,101953.53
2018-09-15T03:17:13.848Z,101950.03
2018-09-15T03:19:43.188Z,101957.44
2018-09-15T03:22:12.526Z,101955.41
2018-09-15T03:24:41.592Z,101951.98
2018-09-15T03:27:11.586Z,101950.92
2018-09-15T03:29:41.002Z,101945.78
2018-09-15T03:32:09.847Z,101950.46
2018-09-15T03:34:38.603Z,101945.97
2018-09-15T03:37:07.998Z,101948.45
2018-09-15T03:39:36.819Z,101958.97
2018-09-15T03:42:05.731Z,101959.86
2018-09-15T03:44:34.884Z,101961.01
2018-09-15T03:47:03.649Z,101959.73
2018-09-15T03:49:32.447Z,101962.37
2018-09-15T03:52:02.228Z,101957.70
2018-09-15T03:54:31.209Z,101951.70
2018-09-15T03:57:00.118Z,101957.02
2018-09-15T03:59:29.899Z,101950.48
2018-09-15T04:01:59.807Z,101959.31
2018-09-15T04:04:28.788Z,101966.13
2018-09-15T04:06:58.129Z,101970.28
2018-09-15T04:09:26.971Z,101970.34
2018-09-15T04:11:55.706Z,101973.13
2018-09-15T04:14:24.451Z,101981.67
2018-09-15T04:16:53.868Z,101981.25
2018-09-15T04:19:23.271Z,101984.78
2018-09-15T04:21:52.127Z,101981.43
2018-09-15T04:24:21.402Z,101980.52
2018-09-15T04:26:50.693Z,101984.28
2018-09-15T04:29:19.608Z,101985.27
2018-09-15T04:31:48.452Z,101991.95
2018-09-15T04:34:17.327Z,101998.44
2018-09-15T04:36:46.335Z,101991.88
2018-09-15T04:39:15.078Z,101989.72
2018-09-15T04:41:43.867Z,101996.09
2018-09-15T04:44:12.756Z,101994.34
2018-09-15T04:46:41.748Z,101997.69
2018-09-15T04:49:10.683Z,102001.36
2018-09-15T04:51:40.049Z,101995.78
2018-09-15T04:54:09.252Z,101999.33
2018-09-15T04:56:38.140Z,101992.87
2018-09-15T04:59:06.863Z,101987.73
2018-09-15T05:01:35.693Z,101994.84
2018-09-15T05:04:05.773Z,101994.62
2018-09-15T05:06:35.024Z,102000.31
2018-09-15T05:09:04.549Z,102003.34
2018-09-15T05:11:33.323Z,102003.58
2018-09-15T05:14:02.181Z,102005.02
2018-09-15T05:16:30.942Z,102007.80
2018-09-15T05:19:00.335Z,102013.25
2018-09-15T05:21:29.151Z,102012.25
2018-09-15T05:23:58.406Z,102003.63
2018-09-15T05:26:27.291Z,102007.47
2018-09-15T05:28:56.088Z,102008.52
2018-09-15T05:31:24.926Z,102009.47
2018-09-15T05:33:53.807Z,102009.16
2018-09-15T05:36:22.442Z,102012.03
2018-09-15T05:38:51.211Z,102016.84
2018-09-15T05:41:20.147Z,102020.89
2018-09-15T05:43:49.072Z,102024.67
2018-09-15T05:46:18.076Z,102032.39
2018-09-15T05:48:47.097Z,102036.50
2018-09-15T05:51:16.468Z,102035.81
2018-09-15T05:53:45.382Z,102039.30
2018-09-15T05:56:14.323Z,102045.10
2018-09-15T05:58:43.148Z,102036.16
2018-09-15T06:01:12.096Z,102044.01
2018-09-15T06:03:40.828Z,102046.38
2018-09-15T06:06:11.032Z,102047.30
2018-09-15T06:08:39.712Z,102051.43
2018-09-15T06:11:08.497Z,102051.70
2018-09-15T06:13:37.475Z,102048.55
2018-09-15T06:16:06.197Z,102045.91
2018-09-15T06:18:35.885Z,102056.42
2018-09-15T06:21:05.471Z,102063.55
2018-09-15T06:23:35.290Z,102072.68
2018-09-15T06:26:04.938Z,102084.78
2018-09-15T06:28:34.897Z,102084.95
2018-09-15T06:31:03.778Z,102094.52
2018-09-15T06:33:33.201Z,102089.90
2018-09-15T06:36:01.966Z,102094.39
2018-09-15T06:38:31.509Z,102091.83
2018-09-15T06:41:00.969Z,102082.73
2018-09-15T06:43:29.696Z,102085.86
2018-09-15T06:45:59.113Z,102075.71
2018-09-15T06:48:28.167Z,102087.05
2018-09-15T06:50:57.053Z,102078.75
2018-09-15T06:53:25.816Z,102075.42
2018-09-15T06:55:54.608Z,102079.51
2018-09-15T06:58:23.507Z,102092.65
2018-09-15T07:00:52.419Z,102094.84
2018-09-15T07:03:21.392Z,102089.47
2018-09-15T07:05:50.147Z,102099.02
2018-09-15T07:08:19.133Z,102101.61
2018-09-15T07:10:47.997Z,102103.94
2018-09-15T07:13:16.680Z,102114.52
2018-09-15T07:15:45.546Z,102109.17
2018-09-15T07:18:14.547Z,102112.64
2018-09-15T07:20:43.717Z,102114.77
2018-09-15T07:23:12.465Z,102120.84
2018-09-15T07:25:41.926Z,102127.76
2018-09-15T07:28:11.362Z,102124.47
2018-09-15T07:30:40.231Z,102135.44
2018-09-15T07:33:09.078Z,102137.59
2018-09-15T07:35:37.894Z,102138.42
2018-09-15T07:38:06.827Z,102141.05
2018-09-15T07:40:35.636Z,102137.56
2018-09-15T07:43:04.562Z,102135.83
2018-09-15T07:45:33.539Z,102139.05
2018-09-15T07:48:02.493Z,102136.88
2018-09-15T07:50:31.158Z,102144.52
2018-09-15T07:52:59.869Z,102142.21
2018-09-15T07:55:28.631Z,102146.70
2018-09-15T07:57:57.423Z,102149.80
2018-09-15T08:00:26.177Z,102150.20
2018-09-15T08:02:54.861Z,102157.48
2018-09-15T08:05:23.601Z,102160.77
2018-09-15T08:07:53.322Z,102154.06
2018-09-15T08:10:22.083Z,102162.45
2018-09-15T08:12:50.801Z,102160.66
2018-09-15T08:15:19.681Z,102158.52
2018-09-15T08:17:49.436Z,102159.59
2018-09-15T08:20:18.172Z,102164.31
2018-09-15T08:22:47.402Z,102158.53
2018-09-15T08:25:16.200Z,102170.30
2018-09-15T08:27:46.021Z,102165.54
2018-09-15T08:30:14.896Z,102165.14
2018-09-15T08:32:43.774Z,102159.97
2018-09-15T08:35:12.763Z,102170.62
2018-09-15T08:37:41.640Z,102173.84
2018-09-15T08:40:10.442Z,102177.53
2018-09-15T08:42:39.436Z,102179.47
2018-09-15T08:45:08.322Z,102178.55
2018-09-15T08:47:37.288Z,102177.55
2018-09-15T08:50:06.482Z,102177.72
2018-09-15T08:52:36.007Z,102181.77
2018-09-15T08:55:06.383Z,102188.06
2018-09-15T08:57:36.226Z,102184.89
2018-09-15T09:00:06.036Z,102188.36
2018-09-15T09:02:35.762Z,102192.89
2018-09-15T09:05:04.821Z,102184.82
2018-09-15T09:07:33.662Z,102186.08
2018-09-15T09:10:02.423Z,102184.39
2018-09-15T09:12:31.411Z,102183.48
2018-09-15T09:15:00.106Z,102177.78
2018-09-15T09:17:28.912Z,102192.61
2018-09-15T09:19:58.412Z,102197.45
2018-09-15T09:22:27.376Z,102194.98
2018-09-15T09:24:56.845Z,102188.00
2018-09-15T09:27:25.655Z,102190.83
2018-09-15T09:29:54.515Z,102198.84
2018-09-15T09:32:23.403Z,102187.19
2018-09-15T09:34:52.483Z,102200.31
2018-09-15T09:37:21.246Z,102193.33
2018-09-15T09:39:50.068Z,102188.99
2018-09-15T09:42:19.035Z,102179.41
2018-09-15T09:44:48.007Z,102186.84
2018-09-15T09:47:17.486Z,102193.35
2018-09-15T09:49:46.300Z,102191.00
2018-09-15T09:52:15.153Z,102192.09
2018-09-15T09:54:43.902Z,102186.52
2018-09-15T09:57:12.557Z,102195.09
2018-09-15T09:59:41.572Z,102196.89
2018-09-15T10:02:13.140Z,102188.80
2018-09-15T10:04:41.898Z,102189.28
2018-09-15T10:07:11.290Z,102185.55
2018-09-15T10:09:41.171Z,102184.47
2018-09-15T10:12:11.126Z,102186.64
2018-09-15T10:14:40.077Z,102184.79
2018-09-15T10:17:08.833Z,102187.13
2018-09-15T10:19:37.861Z,102185.06
2018-09-15T10:22:07.036Z,102182.58
2018-09-15T10:24:36.137Z,102178.87
2018-09-15T10:27:05.117Z,102175.81
2018-09-15T10:29:34.416Z,102172.30
2018-09-15T10:32:04.000Z,102174.34
2018-09-15T10:34:32.827Z,102163.16
2018-09-15T10:37:01.655Z,102182.58
2018-09-15T10:39:31.187Z,102189.49
2018-09-15T10:41:59.923Z,102193.88
2018-09-15T10:44:28.715Z,102192.63
2018-09-15T10:46:57.658Z,102189.73
2018-09-15T10:49:26.432Z,102180.89
2018-09-15T10:51:55.228Z,102180.35
2018-09-15T10:54:24.113Z,102188.84
2018-09-15T10:56:53.088Z,102183.30
2018-09-15T10:59:21.865Z,102180.55
2018-09-15T11:01:51.390Z,102183.28
2018-09-15T11:04:20.150Z,102185.81
2018-09-15T11:06:49.071Z,102178.48
2018-09-15T11:09:17.909Z,102186.05
2018-09-15T11:11:46.770Z,102183.78
2018-09-15T11:14:15.680Z,102178.72
2018-09-15T11:16:44.709Z,102178.91
2018-09-15T11:19:13.495Z,102173.90
2018-09-15T11:21:42.296Z,102164.93
2018-09-15T11:24:11.161Z,102160.05
2018-09-15T11:26:40.705Z,102175.86
2018-09-15T11:29:09.528Z,102178.58
2018-09-15T11:31:39.355Z,102183.56
2018-09-15T11:34:08.363Z,102187.47
2018-09-15T11:36:37.766Z,102184.14
2018-09-15T11:39:08.985Z,102179.52
2018-09-15T11:41:38.005Z,102175.28
2018-09-15T11:44:06.877Z,102175.03
2018-09-15T11:46:35.817Z,102174.80
2018-09-15T11:49:04.783Z,102177.21
2018-09-15T11:51:33.720Z,102176.64
2018-09-15T11:54:03.521Z,102181.66
2018-09-15T11:56:32.290Z,102185.53
2018-09-15T11:59:01.169Z,102189.82
2018-09-15T12:01:30.677Z,102184.09
2018-09-15T12:03:59.477Z,102187.50
2018-09-15T12:06:28.150Z,102195.44
2018-09-15T12:08:56.829Z,102204.38
2018-09-15T12:11:25.634Z,102205.70
2018-09-15T12:13:54.423Z,102214.57
2018-09-15T12:16:23.790Z,102213.30
2018-09-15T12:18:52.577Z,102225.09
2018-09-15T12:21:21.560Z,102223.20
2018-09-15T12:23:50.535Z,102227.56
2018-09-15T12:26:19.320Z,102230.13
2018-09-15T12:28:47.980Z,102224.30
2018-09-15T12:31:16.828Z,102223.48
2018-09-15T12:33:45.625Z,102226.23
2018-09-15T12:36:14.323Z,102224.80
2018-09-15T12:38:43.019Z,102226.82
2018-09-15T12:41:12.627Z,102231.28
2018-09-15T12:43:41.596Z,102226.59
2018-09-15T12:46:11.067Z,102230.34
2018-09-15T12:48:39.885Z,102231.39
2018-09-15T12:51:09.333Z,102228.98
2018-09-15T12:53:38.346Z,102226.24
2018-09-15T12:56:07.257Z,102219.91
2018-09-15T12:58:36.231Z,102219.21
2018-09-15T13:01:05.075Z,102207.23
2018-09-15T13:03:33.745Z,102209.19
2018-09-15T13:06:02.860Z,102205.44
2018-09-15T13:08:31.961Z,102201.86
2018-09-15T13:11:01.060Z,102203.46
2018-09-15T13:13:29.930Z,102198.10
2018-09-15T13:15:58.647Z,102196.85
2018-09-15T13:18:27.515Z,102201.67
2018-09-15T13:20:57.144Z,102209.30
2018-09-15T13:23:25.883Z,102203.97
2018-09-15T13:25:54.584Z,102204.53
2018-09-15T13:28:23.491Z,102206.36
2018-09-15T13:30:52.129Z,102203.80
2018-09-15T13:33:20.802Z,102196.28
2018-09-15T13:35:49.807Z,102201.21
2018-09-15T13:38:18.523Z,102208.65
2018-09-15T13:40:47.357Z,102218.56
2018-09-15T13:43:15.985Z,102218.42
2018-09-15T13:45:44.770Z,102214.61
2018-09-15T13:48:13.456Z,102222.47
2018-09-15T13:50:42.201Z,102225.86
2018-09-15T13:53:10.937Z,102222.98
2018-09-15T13:55:39.567Z,102221.37
2018-09-15T13:58:08.290Z,102225.47
2018-09-15T14:00:36.950Z,102220.45
2018-09-15T14:03:06.647Z,102220.45
2018-09-15T14:05:35.430Z,102221.73
2018-09-15T14:08:04.385Z,102213.64
2018-09-15T14:10:33.360Z,102208.32
2018-09-15T14:13:02.203Z,102211.12
2018-09-15T14:15:31.063Z,102217.22
2018-09-15T14:17:59.853Z,102214.71
2018-09-15T14:20:29.270Z,102212.05
2018-09-15T14:22:57.930Z,102207.18
2018-09-15T14:25:27.209Z,102197.56
2018-09-15T14:27:55.870Z,102200.82
2018-09-15T14:30:24.543Z,102206.09
2018-09-15T14:32:53.211Z,102203.00
2018-09-15T14:35:22.157Z,102199.40
2018-09-15T14:37:50.953Z,102206.15
2018-09-15T14:40:20.982Z,102207.85
2018-09-15T14:42:50.289Z,102209.58
2018-09-15T14:45:20.049Z,102212.09
2018-09-15T14:47:48.893Z,102212.70
2018-09-15T14:50:17.674Z,102210.19
2018-09-15T14:52:46.454Z,102215.51
2018-09-15T14:55:15.299Z,102209.17
2018-09-15T14:57:44.313Z,102216.63
2018-09-15T15:00:13.064Z,102217.31
2018-09-15T15:02:41.989Z,102212.39
2018-09-15T15:05:10.991Z,102212.72
2018-09-15T15:07:40.371Z,102208.74
2018-09-15T15:10:09.181Z,102201.67
2018-09-15T15:12:39.141Z,102196.86
2018-09-15T15:15:09.095Z,102198.41
2018-09-15T15:17:37.943Z,102194.87
2018-09-15T15:20:07.079Z,102199.97
2018-09-15T15:22:35.936Z,102193.55
2018-09-15T15:25:05.460Z,102194.35
2018-09-15T15:27:34.231Z,102197.56
2018-09-15T15:30:04.116Z,102200.20
2018-09-15T15:32:32.983Z,102198.36
2018-09-15T15:35:01.795Z,102198.12
2018-09-15T15:37:31.824Z,102197.09
2018-09-15T15:40:00.590Z,102202.01
2018-09-15T15:42:29.307Z,102201.10
2018-09-15T15:44:58.015Z,102202.93
2018-09-15T15:47:26.629Z,102204.16
2018-09-15T15:49:55.311Z,102200.89
2018-09-15T15:52:23.990Z,102203.50
2018-09-15T15:54:52.689Z,102195.27
2018-09-15T16:00:28.231Z,102204.95
2018-09-15T16:02:56.951Z,102207.24
2018-09-15T16:05:26.031Z,102199.10
2018-09-15T16:07:54.893Z,102200.54
2018-09-15T16:10:23.800Z,102207.65
2018-09-15T16:12:52.479Z,102199.73
2018-09-15T16:15:21.151Z,102195.52
2018-09-15T16:17:50.540Z,102199.16
2018-09-15T16:20:19.208Z,102202.40
2018-09-15T16:22:48.405Z,102205.34
2018-09-15T16:25:17.206Z,102199.50
2018-09-15T16:27:46.826Z,102199.05
2018-09-15T16:30:15.723Z,102197.59
2018-09-15T16:32:44.557Z,102196.66
2018-09-15T16:35:13.373Z,102195.91
2018-09-15T16:37:42.325Z,102193.84
2018-09-15T16:40:11.756Z,102190.89
2018-09-15T16:42:40.760Z,102196.81
2018-09-15T16:45:11.779Z,102194.19
2018-09-15T16:47:41.657Z,102199.13
2018-09-15T16:50:10.448Z,102197.17
2018-09-15T16:52:39.315Z,102201.50
2018-09-15T16:55:08.368Z,102198.23
2018-09-15T16:57:37.340Z,102209.87
2018-09-15T17:00:06.163Z,102207.40
2018-09-15T17:02:34.984Z,102210.45
2018-09-15T17:05:03.920Z,102204.81
2018-09-15T17:07:32.624Z,102197.25
2018-09-15T17:10:01.276Z,102202.17
2018-09-15T17:12:29.971Z,102211.91
2018-09-15T17:14:58.651Z,102209.98
2018-09-15T17:17:27.390Z,102206.92
2018-09-15T17:19:56.148Z,102205.31
2018-09-15T17:22:24.909Z,102206.92
2018-09-15T17:24:53.538Z,102210.56
2018-09-15T17:27:22.231Z,102218.70
2018-09-15T17:29:50.964Z,102212.89
2018-09-15T17:32:21.255Z,102219.09
2018-09-15T17:34:50.644Z,102223.92
2018-09-15T17:37:19.795Z,102220.69
2018-09-15T17:39:48.601Z,102225.45
2018-09-15T17:42:17.301Z,102230.01
2018-09-15T17:44:46.266Z,102230.41
2018-09-15T17:47:15.125Z,102228.85
2018-09-15T17:49:44.911Z,102234.17
2018-09-15T17:52:13.709Z,102229.58
2018-09-15T17:54:42.740Z,102231.78
2018-09-15T17:57:11.534Z,102229.66
2018-09-15T17:59:40.490Z,102235.66
2018-09-15T18:02:09.491Z,102238.86
2018-09-15T18:04:38.487Z,102246.58
2018-09-15T18:07:07.514Z,102247.19
2018-09-15T18:09:36.932Z,102250.08
2018-09-15T18:12:05.860Z,102257.34
2018-09-15T18:14:34.851Z,102252.94
2018-09-15T18:17:04.365Z,102259.80
2018-09-15T18:19:33.186Z,102256.95
2018-09-15T18:22:01.995Z,102255.97
2018-09-15T18:24:30.840Z,102258.70
2018-09-15T18:26:59.654Z,102263.08
2018-09-15T18:29:28.300Z,102260.19
2018-09-15T18:31:57.589Z,102257.86
2018-09-15T18:34:27.231Z,102261.30
2018-09-15T18:36:56.134Z,102265.09
2018-09-15T18:39:25.856Z,102270.94
2018-09-15T18:41:55.129Z,102270.70
2018-09-15T18:44:24.693Z,102268.76
2018-09-15T18:46:53.516Z,102269.98
2018-09-15T18:49:22.740Z,102271.73
2018-09-15T18:51:51.375Z,102271.34
2018-09-15T18:54:20.092Z,102278.41
2018-09-15T18:56:48.988Z,102279.09
2018-09-15T18:59:17.684Z,102278.27
2018-09-15T19:01:46.395Z,102275.96
2018-09-15T19:04:15.200Z,102282.57
2018-09-15T19:06:44.049Z,102283.23
2018-09-15T19:09:13.175Z,102296.81
2018-09-15T19:11:42.236Z,102295.88
2018-09-15T19:14:11.516Z,102294.70
2018-09-15T19:16:41.133Z,102294.58
2018-09-15T19:19:09.807Z,102300.79
2018-09-15T19:21:38.604Z,102292.96
2018-09-15T19:24:07.948Z,102294.14
2018-09-15T19:26:37.469Z,102295.06
2018-09-15T19:29:06.554Z,102301.64
2018-09-15T19:31:35.398Z,102304.00
2018-09-15T19:34:04.064Z,102307.45
2018-09-15T19:36:33.534Z,102305.23
2018-09-15T19:39:03.807Z,102305.45
2018-09-15T19:41:32.484Z,102313.52
2018-09-15T19:44:01.403Z,102317.91
2018-09-15T19:46:30.999Z,102318.28
2018-09-15T19:48:59.713Z,102325.91
2018-09-15T19:51:28.618Z,102331.53
2018-09-15T19:53:57.262Z,102329.77
2018-09-15T19:56:25.909Z,102332.23
2018-09-15T19:58:54.559Z,102333.20
2018-09-15T20:01:23.324Z,102335.71
2018-09-15T20:03:52.047Z,102332.69
2018-09-15T20:06:20.713Z,102324.62
2018-09-15T20:08:49.414Z,102330.79
2018-09-15T20:11:18.213Z,102326.55
2018-09-15T20:13:47.254Z,102332.94
2018-09-15T20:16:14.818Z,102327.23
2018-09-15T20:18:42.216Z,102328.26
2018-09-15T20:21:09.628Z,102327.45
2018-09-15T20:23:38.709Z,102324.88
2018-09-15T20:26:07.792Z,102329.88
2018-09-15T20:28:36.643Z,102333.91
2018-09-15T20:31:05.435Z,102335.78
2018-09-15T20:33:34.567Z,102329.52
2018-09-15T20:36:04.217Z,102337.53
2018-09-15T20:38:33.164Z,102337.25
2018-09-15T20:41:02.235Z,102336.48
2018-09-15T20:43:31.287Z,102341.03
2018-09-15T20:45:59.999Z,102335.20
2018-09-15T20:48:28.721Z,102331.58
2018-09-15T20:50:57.435Z,102339.46
2018-09-15T20:53:26.146Z,102332.48
2018-09-15T20:55:54.869Z,102334.00
2018-09-15T20:58:23.517Z,102329.74
2018-09-15T21:00:52.514Z,102327.86
2018-09-15T21:03:21.173Z,102323.59
2018-09-15T21:05:50.230Z,102324.44
2018-09-15T21:08:19.090Z,102326.69
2018-09-15T21:10:47.839Z,102322.73
2018-09-15T21:13:17.137Z,102326.32
2018-09-15T21:15:46.931Z,102327.33
2018-09-15T21:18:15.860Z,102323.80
2018-09-15T21:20:45.360Z,102324.93
2018-09-15T21:23:14.970Z,102321.69
2018-09-15T21:25:43.898Z,102323.89
2018-09-15T21:28:12.800Z,102319.31
2018-09-15T21:30:42.452Z,102323.45
2018-09-15T21:33:11.333Z,102321.83
2018-09-15T21:35:40.658Z,102326.95
2018-09-15T21:38:09.795Z,102332.60
2018-09-15T21:40:38.789Z,102335.09
2018-09-15T21:43:07.948Z,102336.28
2018-09-15T21:45:36.873Z,102337.92
2018-09-15T21:48:05.658Z,102337.52
2018-09-15T21:50:34.488Z,102335.66
2018-09-15T21:53:03.147Z,102340.77
2018-09-15T21:55:31.899Z,102337.87
2018-09-15T21:58:00.689Z,102344.48
2018-09-15T22:00:29.555Z,102337.89
2018-09-15T22:02:58.364Z,102331.09
2018-09-15T22:05:27.258Z,102331.39
2018-09-15T22:07:56.753Z,102332.88
2018-09-15T22:10:25.707Z,102340.66
2018-09-15T22:12:54.483Z,102333.83
2018-09-15T22:15:25.549Z,102334.06
2018-09-15T22:17:55.648Z,102335.55
2018-09-15T22:20:24.553Z,102334.48
2018-09-15T22:22:53.544Z,102336.66
2018-09-15T22:25:22.391Z,102332.67
2018-09-15T22:27:51.768Z,102337.63
2018-09-15T22:30:20.633Z,102332.02
2018-09-15T22:32:49.432Z,102331.06
2018-09-15T22:35:18.389Z,102324.86
2018-09-15T22:37:47.248Z,102331.45
2018-09-15T22:40:16.171Z,102331.97
2018-09-15T22:42:45.413Z,102331.92
2018-09-15T22:45:14.947Z,102328.41
2018-09-15T22:47:43.917Z,102326.34
2018-09-15T22:50:13.002Z,102323.39
2018-09-15T22:52:41.782Z,102319.05
2018-09-15T22:55:10.578Z,102319.55
2018-09-15T22:57:40.263Z,102318.14
2018-09-15T23:00:09.999Z,102326.80
2018-09-15T23:02:38.953Z,102325.52
2018-09-15T23:05:08.150Z,102325.83
2018-09-15T23:07:37.078Z,102323.42
2018-09-15T23:10:06.199Z,102321.78
2018-09-15T23:12:35.258Z,102323.39
2018-09-15T23:15:04.244Z,102317.42
2018-09-15T23:17:33.235Z,102326.10
2018-09-15T23:20:02.129Z,102322.79
2018-09-15T23:22:31.077Z,102323.39
2018-09-15T23:24:59.978Z,102329.11
2018-09-15T23:27:28.695Z,102329.16
2018-09-15T23:29:57.487Z,102326.75
2018-09-15T23:32:26.237Z,102318.52
2018-09-15T23:34:55.762Z,102324.41
2018-09-15T23:37:24.481Z,102326.14
2018-09-15T23:39:53.240Z,102322.14
2018-09-15T23:42:22.497Z,102322.98
2018-09-15T23:44:51.443Z,102322.14
2018-09-15T23:47:20.272Z,102320.58
2018-09-15T23:49:49.264Z,102313.97
2018-09-15T23:52:18.124Z,102317.98
2018-09-15T23:54:47.069Z,102317.55
2018-09-15T23:57:15.978Z,102307.20
2018-09-15T23:59:45.683Z,102314.36
